Time;durP1;ratioP1;P1;durP2;ratioP2;P2;SDS_P1;SDS_P2;PMS_P1;PMS_P2;Temp;Humidity;BMP_temperature;BMP_pressure;BME280_temperature;BME280_humidity;BME280_pressure;Samples;Min_cycle;Max_cycle;Signal;HPM_P1;HPM_P2
2022/03/28 00:02:22;;;;;;;5.65;2.87;;;10.30;33.30;;;;;;2345146;53;20924;-66
2022/03/28 00:04:48;;;;;;;5.25;2.45;;;10.30;33.30;;;;;;2502819;52;20965;-64
2022/03/28 00:07:14;;;;;;;4.72;2.40;;;10.30;33.30;;;;;;2345317;53;21035;-66
2022/03/28 00:09:40;;;;;;;6.55;2.62;;;10.20;33.30;;;;;;2344942;53;20999;-65
2022/03/28 00:12:08;;;;;;;6.93;3.12;;;10.20;33.50;;;;;;2346068;53;21025;-67
2022/03/28 00:14:34;;;;;;;4.53;2.30;;;10.20;33.60;;;;;;2344852;53;20948;-66
2022/03/28 00:17:00;;;;;;;4.78;2.45;;;10.10;33.50;;;;;;2346578;53;21013;-65
2022/03/28 00:19:27;;;;;;;5.20;2.37;;;10.10;33.50;;;;;;2341137;53;21482;-66
2022/03/28 00:21:53;;;;;;;5.12;2.15;;;10.10;33.60;;;;;;2345802;53;20932;-65
2022/03/28 00:24:19;;;;;;;5.53;2.30;;;10.00;33.60;;;;;;2343815;53;21007;-66
2022/03/28 00:26:46;;;;;;;4.32;2.20;;;10.00;33.50;;;;;;2340414;53;20913;-65
2022/03/28 00:29:12;;;;;;;4.05;2.10;;;10.00;33.60;;;;;;2345118;53;20924;-66
2022/03/28 00:31:39;;;;;;;4.40;2.10;;;9.90;34.40;;;;;;2583533;52;20976;-65
2022/03/28 00:34:06;;;;;;;5.40;2.35;;;9.90;34.50;;;;;;2350351;53;21045;-66
2022/03/28 00:36:32;;;;;;;4.70;2.20;;;9.90;34.60;;;;;;2344371;53;21765;-66
2022/03/28 00:38:59;;;;;;;6.20;2.10;;;9.90;34.60;;;;;;2348148;53;21324;-65
2022/03/28 00:41:26;;;;;;;5.72;2.60;;;9.80;34.60;;;;;;2345335;53;20981;-66
2022/03/28 00:43:56;;;;;;;5.75;2.30;;;9.80;34.70;;;;;;2354484;52;20916;-66
2022/03/28 00:46:22;;;;;;;5.95;2.45;;;9.70;34.70;;;;;;2345050;53;20968;-65
2022/03/28 00:48:49;;;;;;;6.97;2.40;;;9.70;34.80;;;;;;2345189;53;21734;-67
2022/03/28 00:51:19;;;;;;;6.05;2.40;;;9.70;34.80;;;;;;2344995;53;20944;-64
2022/03/28 00:53:46;;;;;;;4.07;1.95;;;9.60;34.90;;;;;;2344977;53;20925;-67
2022/03/28 00:56:12;;;;;;;5.45;2.47;;;9.60;34.90;;;;;;2563351;52;21481;-64
2022/03/28 00:58:39;;;;;;;4.12;1.98;;;9.50;34.80;;;;;;2591272;52;21008;-64
2022/03/28 01:01:05;;;;;;;3.83;1.98;;;9.50;34.90;;;;;;2344449;53;20955;-65
2022/03/28 01:03:32;;;;;;;4.72;2.20;;;9.50;34.90;;;;;;2345221;53;21520;-66
2022/03/28 01:05:58;;;;;;;4.15;1.95;;;9.40;35.50;;;;;;2345065;53;21369;-66
2022/03/28 01:08:25;;;;;;;5.12;2.40;;;9.40;34.90;;;;;;2591461;52;21493;-66
2022/03/28 01:10:52;;;;;;;3.95;2.10;;;9.30;34.90;;;;;;2345291;53;21488;-67
2022/03/28 01:13:18;;;;;;;4.15;1.98;;;9.30;35.00;;;;;;2345247;53;20988;-65
2022/03/28 01:15:45;;;;;;;7.25;2.17;;;9.30;35.10;;;;;;2400203;52;20924;-66
2022/03/28 01:18:11;;;;;;;4.00;1.90;;;9.20;35.00;;;;;;2345366;53;20956;-64
2022/03/28 01:20:39;;;;;;;3.80;1.83;;;9.20;35.20;;;;;;2344962;53;21017;-66
2022/03/28 01:23:06;;;;;;;4.82;2.53;;;9.20;35.20;;;;;;2591629;52;21485;-64
2022/03/28 01:25:33;;;;;;;5.80;2.40;;;9.10;35.20;;;;;;2346098;53;20996;-65
2022/03/28 01:27:59;;;;;;;5.35;2.50;;;9.10;35.30;;;;;;2344867;53;20920;-65
2022/03/28 01:30:27;;;;;;;4.75;1.87;;;9.00;35.40;;;;;;2344542;53;20937;-65
2022/03/28 01:32:53;;;;;;;4.95;2.05;;;9.00;35.50;;;;;;2345178;53;20933;-65
2022/03/28 01:35:36;;;;;;;4.90;2.20;;;9.00;35.50;;;;;;2345620;53;21480;-64
2022/03/28 01:38:05;;;;;;;4.35;2.08;;;8.90;35.70;;;;;;2469556;53;20983;-65
2022/03/28 01:40:31;;;;;;;5.20;2.42;;;8.90;35.60;;;;;;2350353;53;21439;-64
2022/03/28 01:42:57;;;;;;;5.50;2.40;;;8.80;35.50;;;;;;2339604;53;21590;-65
2022/03/28 01:45:24;;;;;;;6.10;2.40;;;8.80;35.60;;;;;;2344967;53;20953;-67
2022/03/28 01:47:50;;;;;;;4.60;2.12;;;8.80;35.70;;;;;;2345222;53;20920;-65
2022/03/28 01:50:19;;;;;;;4.10;2.03;;;8.80;35.90;;;;;;2351905;53;21022;-63
2022/03/28 01:52:45;;;;;;;4.50;2.08;;;8.70;35.80;;;;;;2340941;53;20980;-66
2022/03/28 01:55:11;;;;;;;4.80;2.37;;;8.70;35.90;;;;;;2338737;53;20917;-66
2022/03/28 01:57:41;;;;;;;4.22;2.05;;;8.70;35.90;;;;;;2348959;53;20940;-66
2022/03/28 02:00:09;;;;;;;6.68;2.55;;;8.70;36.00;;;;;;2344129;53;21826;-66
2022/03/28 02:02:37;;;;;;;4.15;2.12;;;8.60;36.00;;;;;;2345074;54;20937;-66
2022/03/28 02:05:04;;;;;;;5.07;2.42;;;8.60;36.10;;;;;;2345066;53;20936;-67
2022/03/28 02:07:31;;;;;;;5.10;2.10;;;8.60;36.20;;;;;;2344816;53;20976;-67
2022/03/28 02:09:57;;;;;;;4.47;2.30;;;8.50;36.10;;;;;;2348611;53;20976;-64
2022/03/28 02:12:23;;;;;;;4.78;2.30;;;8.50;36.10;;;;;;2345261;53;20929;-63
2022/03/28 02:14:49;;;;;;;4.75;1.98;;;8.50;36.20;;;;;;2382636;53;20936;-65
2022/03/28 02:17:18;;;;;;;5.15;2.40;;;8.50;36.30;;;;;;2345122;53;20932;-66
2022/03/28 02:19:44;;;;;;;3.35;1.70;;;8.40;36.30;;;;;;2348390;53;20992;-63
2022/03/28 02:22:12;;;;;;;5.03;2.45;;;8.40;36.30;;;;;;2344308;53;20916;-63
2022/03/28 02:24:39;;;;;;;5.32;2.35;;;8.40;36.50;;;;;;2344027;53;21330;-66
2022/03/28 02:27:06;;;;;;;5.40;2.60;;;8.40;36.60;;;;;;2344944;53;20913;-64
2022/03/28 02:29:35;;;;;;;4.53;2.47;;;8.40;36.60;;;;;;2344711;53;20952;-63
2022/03/28 02:32:01;;;;;;;6.70;2.42;;;8.30;36.70;;;;;;2348891;53;20996;-65
2022/03/28 02:34:28;;;;;;;4.28;2.15;;;8.30;36.60;;;;;;2337977;53;20968;-63
2022/03/28 02:36:54;;;;;;;5.15;2.50;;;8.30;36.60;;;;;;2345433;53;20948;-65
2022/03/28 02:39:20;;;;;;;4.93;2.10;;;8.30;36.70;;;;;;2344039;53;20964;-64
2022/03/28 02:41:46;;;;;;;3.97;1.98;;;8.20;36.60;;;;;;2348529;53;20984;-66
2022/03/28 02:44:13;;;;;;;4.43;2.20;;;8.20;36.60;;;;;;2351908;53;21037;-65
2022/03/28 02:46:39;;;;;;;7.32;2.58;;;8.20;36.80;;;;;;2351433;53;20938;-64
2022/03/28 02:49:05;;;;;;;4.95;2.42;;;8.20;36.90;;;;;;2338684;53;20973;-65
2022/03/28 02:51:34;;;;;;;5.57;2.72;;;8.20;37.00;;;;;;2344434;53;20901;-65
2022/03/28 02:54:01;;;;;;;4.55;2.20;;;8.10;37.00;;;;;;2344410;53;20929;-64
2022/03/28 02:56:28;;;;;;;5.62;2.40;;;8.10;37.10;;;;;;2348008;53;21014;-65
2022/03/28 02:58:55;;;;;;;4.78;2.45;;;8.10;37.10;;;;;;2401082;52;20993;-64
2022/03/28 03:01:21;;;;;;;5.87;2.20;;;8.10;37.20;;;;;;2347054;53;21745;-65
2022/03/28 03:03:47;;;;;;;5.00;2.12;;;8.10;37.30;;;;;;2344740;53;20936;-66
2022/03/28 03:06:14;;;;;;;4.00;1.98;;;8.00;37.30;;;;;;2344675;53;20945;-65
2022/03/28 03:08:40;;;;;;;4.40;2.30;;;8.00;37.40;;;;;;2345058;53;20990;-63
2022/03/28 03:11:06;;;;;;;4.90;2.53;;;8.00;37.40;;;;;;2345425;53;20933;-66
2022/03/28 03:13:32;;;;;;;4.65;2.30;;;8.00;37.50;;;;;;2345033;53;21209;-64
2022/03/28 03:15:59;;;;;;;6.35;3.08;;;8.00;37.60;;;;;;2344771;53;21000;-66
2022/03/28 03:18:26;;;;;;;4.90;2.60;;;8.00;37.60;;;;;;2345357;53;21414;-64
2022/03/28 03:20:53;;;;;;;4.97;2.37;;;7.90;37.50;;;;;;2348317;53;21016;-65
2022/03/28 03:23:19;;;;;;;5.30;2.45;;;7.90;37.60;;;;;;2350697;54;20961;-64
2022/03/28 03:25:46;;;;;;;5.57;2.45;;;7.90;37.60;;;;;;2365125;53;20944;-66
2022/03/28 03:28:12;;;;;;;7.07;2.30;;;7.90;37.70;;;;;;2591622;52;20904;-65
2022/03/28 03:30:39;;;;;;;4.65;2.17;;;7.80;37.60;;;;;;2590987;52;20937;-65
2022/03/28 03:33:07;;;;;;;6.22;2.60;;;7.90;37.70;;;;;;2344550;53;20949;-64
2022/03/28 03:35:36;;;;;;;5.03;2.28;;;7.80;37.70;;;;;;2344802;53;20897;-64
2022/03/28 03:38:03;;;;;;;5.55;2.47;;;7.80;37.80;;;;;;2344917;53;20973;-65
2022/03/28 03:40:29;;;;;;;7.07;3.12;;;7.80;37.80;;;;;;2344518;53;21012;-66
2022/03/28 03:42:55;;;;;;;5.15;2.70;;;7.80;37.90;;;;;;2345232;53;21000;-65
2022/03/28 03:45:21;;;;;;;5.55;2.40;;;7.80;37.90;;;;;;2345163;53;21554;-66
2022/03/28 03:47:48;;;;;;;5.37;2.35;;;7.70;38.40;;;;;;2347279;53;21090;-66
2022/03/28 03:50:14;;;;;;;5.75;2.85;;;7.70;37.80;;;;;;2342771;53;20924;-64
2022/03/28 03:52:43;;;;;;;5.97;2.85;;;7.70;37.80;;;;;;2591775;52;21040;-65
2022/03/28 03:55:13;;;;;;;4.85;2.45;;;7.70;38.00;;;;;;2345366;53;21543;-63
2022/03/28 03:57:39;;;;;;;5.12;2.28;;;7.60;37.90;;;;;;2322778;53;20963;-64
2022/03/28 04:00:07;;;;;;;6.90;2.50;;;7.60;37.80;;;;;;2316911;53;21030;-64
2022/03/28 04:02:34;;;;;;;5.32;2.53;;;7.60;38.00;;;;;;2317892;53;20944;-64
2022/03/28 04:05:01;;;;;;;6.75;2.22;;;7.60;38.00;;;;;;2310464;54;21015;-64
2022/03/28 04:07:27;;;;;;;5.80;2.78;;;7.50;38.00;;;;;;2311440;54;21029;-66
2022/03/28 04:09:53;;;;;;;6.65;2.62;;;7.50;38.10;;;;;;2318074;53;20958;-64
2022/03/28 04:12:19;;;;;;;5.57;2.60;;;7.50;38.10;;;;;;2324572;53;20962;-65
2022/03/28 04:14:45;;;;;;;5.25;2.60;;;7.40;38.00;;;;;;2329708;53;20940;-64
2022/03/28 04:17:13;;;;;;;5.10;2.65;;;7.40;38.10;;;;;;2317202;54;21543;-64
2022/03/28 04:19:39;;;;;;;7.43;2.92;;;7.40;38.30;;;;;;2317507;53;20965;-63
2022/03/28 04:22:06;;;;;;;5.85;2.67;;;7.40;38.40;;;;;;2334102;54;20928;-64
2022/03/28 04:24:32;;;;;;;5.50;2.50;;;7.30;38.30;;;;;;2416590;53;21378;-66
2022/03/28 04:26:58;;;;;;;5.68;2.58;;;7.30;38.40;;;;;;2338671;53;21040;-65
2022/03/28 04:29:24;;;;;;;6.93;2.95;;;7.30;38.40;;;;;;2583191;53;21460;-63
2022/03/28 04:31:54;;;;;;;6.68;2.80;;;7.30;38.50;;;;;;2579528;53;21373;-65
2022/03/28 04:34:20;;;;;;;6.65;3.28;;;7.20;38.40;;;;;;2342819;54;20977;-65
2022/03/28 04:36:46;;;;;;;4.95;2.70;;;7.20;38.60;;;;;;2585186;53;21746;-64
2022/03/28 04:39:13;;;;;;;6.53;2.85;;;7.20;38.50;;;;;;2341879;53;21520;-63
2022/03/28 04:41:41;;;;;;;7.75;3.33;;;7.20;38.60;;;;;;2343125;53;20956;-65
2022/03/28 04:44:07;;;;;;;5.80;2.67;;;7.10;38.60;;;;;;2340355;53;21880;-65
2022/03/28 04:46:34;;;;;;;5.62;2.53;;;7.10;38.60;;;;;;2585188;53;21824;-63
2022/03/28 04:49:00;;;;;;;5.00;2.85;;;7.10;38.70;;;;;;2340300;54;20924;-64
2022/03/28 04:51:28;;;;;;;5.22;2.70;;;7.10;38.80;;;;;;2339472;54;20936;-65
2022/03/28 04:53:55;;;;;;;5.53;3.10;;;7.10;38.80;;;;;;2341846;53;21472;-64
2022/03/28 04:56:24;;;;;;;8.20;3.33;;;7.00;38.80;;;;;;2342311;53;20943;-64
2022/03/28 04:58:50;;;;;;;5.93;3.10;;;7.00;38.90;;;;;;2332974;53;20987;-65
2022/03/28 05:01:17;;;;;;;5.78;3.05;;;7.00;38.90;;;;;;2335979;53;20944;-65
2022/03/28 05:03:43;;;;;;;8.90;3.15;;;7.00;38.90;;;;;;2343832;53;20997;-62
2022/03/28 05:06:10;;;;;;;6.55;3.40;;;7.00;39.00;;;;;;2338867;53;21439;-64
2022/03/28 05:08:37;;;;;;;7.07;3.20;;;6.90;39.00;;;;;;2420693;53;21035;-65
2022/03/28 05:11:03;;;;;;;6.55;3.05;;;6.90;39.00;;;;;;2339608;54;21012;-65
2022/03/28 05:13:29;;;;;;;6.87;3.30;;;6.90;39.00;;;;;;2340028;54;20940;-63
2022/03/28 05:15:56;;;;;;;6.32;3.15;;;6.90;39.10;;;;;;2340717;54;20952;-66
2022/03/28 05:18:23;;;;;;;5.95;3.12;;;6.90;39.20;;;;;;2338826;53;21456;-65
2022/03/28 05:20:49;;;;;;;6.80;3.35;;;6.90;39.20;;;;;;2340274;54;21498;-65
2022/03/28 05:23:16;;;;;;;6.10;3.03;;;6.90;39.30;;;;;;2340427;54;21110;-64
2022/03/28 05:25:43;;;;;;;6.50;3.12;;;6.80;39.20;;;;;;2585407;53;20928;-66
2022/03/28 05:28:10;;;;;;;6.90;3.47;;;6.80;39.30;;;;;;2340148;54;20981;-65
2022/03/28 05:30:37;;;;;;;6.28;3.10;;;6.80;39.30;;;;;;2340004;54;20929;-66
2022/03/28 05:33:03;;;;;;;8.25;3.83;;;6.80;39.40;;;;;;2340520;54;20992;-64
2022/03/28 05:35:29;;;;;;;7.10;3.65;;;6.80;39.50;;;;;;2340138;54;21008;-64
2022/03/28 05:37:58;;;;;;;5.82;2.92;;;6.80;39.50;;;;;;2340316;54;20955;-66
2022/03/28 05:40:26;;;;;;;6.18;3.40;;;6.80;39.50;;;;;;2340314;54;20967;-63
2022/03/28 05:42:53;;;;;;;6.45;2.97;;;6.80;39.60;;;;;;2585915;53;20991;-64
2022/03/28 05:45:19;;;;;;;5.82;3.40;;;6.70;39.50;;;;;;2340121;54;21451;-63
2022/03/28 05:47:45;;;;;;;6.18;3.17;;;6.70;39.60;;;;;;2339879;54;21320;-65
2022/03/28 05:50:11;;;;;;;5.82;2.87;;;6.80;39.80;;;;;;2340224;53;20932;-63
2022/03/28 05:52:38;;;;;;;7.07;3.70;;;6.80;39.80;;;;;;2339877;54;20927;-65
2022/03/28 05:55:05;;;;;;;7.18;3.37;;;6.80;39.90;;;;;;2447737;53;21413;-64
2022/03/28 05:57:31;;;;;;;6.72;3.17;;;6.80;40.10;;;;;;2585819;53;21020;-65
2022/03/28 05:59:58;;;;;;;6.20;2.95;;;6.80;40.10;;;;;;2562288;53;20936;-64
2022/03/28 06:02:24;;;;;;;7.00;3.10;;;6.80;40.10;;;;;;2339721;54;20966;-64
2022/03/28 06:04:50;;;;;;;7.00;3.50;;;6.80;40.20;;;;;;2340537;54;21040;-63
2022/03/28 06:07:17;;;;;;;7.03;3.65;;;6.90;40.30;;;;;;2372557;53;21389;-66
2022/03/28 06:09:43;;;;;;;7.55;3.75;;;6.90;40.50;;;;;;2345240;53;20997;-65
2022/03/28 06:12:10;;;;;;;7.68;4.00;;;6.90;40.50;;;;;;2328669;53;21452;-65
2022/03/28 06:14:36;;;;;;;6.72;3.62;;;7.00;40.70;;;;;;2338714;54;20968;-63
2022/03/28 06:17:02;;;;;;;8.48;3.80;;;7.00;40.70;;;;;;2338868;54;20925;-64
2022/03/28 06:19:30;;;;;;;8.77;4.82;;;7.10;40.90;;;;;;2339481;54;20937;-62
2022/03/28 06:21:57;;;;;;;9.48;5.28;;;7.10;40.90;;;;;;2339661;54;20972;-63
2022/03/28 06:24:24;;;;;;;7.87;4.45;;;7.20;41.10;;;;;;2339825;54;21417;-64
2022/03/28 06:26:50;;;;;;;8.88;4.70;;;7.30;41.20;;;;;;2339783;54;21405;-65
2022/03/28 06:29:19;;;;;;;8.07;4.22;;;7.30;41.30;;;;;;2343487;53;20929;-63
2022/03/28 06:31:46;;;;;;;7.65;3.72;;;7.40;41.30;;;;;;2339493;54;20940;-64
2022/03/28 06:34:13;;;;;;;7.40;3.80;;;7.50;41.40;;;;;;2534012;53;21127;-63
2022/03/28 06:36:39;;;;;;;9.73;4.50;;;7.50;41.40;;;;;;2339285;53;21808;-65
2022/03/28 06:39:06;;;;;;;6.68;3.72;;;7.60;41.60;;;;;;2340221;54;21955;-66
2022/03/28 06:41:32;;;;;;;9.75;4.07;;;7.80;42.00;;;;;;2339407;53;21068;-65
2022/03/28 06:43:58;;;;;;;8.65;4.70;;;7.90;42.60;;;;;;2340291;53;20916;-66
2022/03/28 06:46:24;;;;;;;9.45;5.20;;;8.10;43.00;;;;;;2340124;54;20916;-66
2022/03/28 06:48:54;;;;;;;8.85;4.82;;;8.30;43.10;;;;;;2340416;54;20933;-63
2022/03/28 06:51:20;;;;;;;8.80;4.78;;;8.50;43.10;;;;;;2338318;53;20941;-65
2022/03/28 06:53:48;;;;;;;7.47;3.90;;;8.70;42.90;;;;;;2378472;53;20941;-65
2022/03/28 06:56:14;;;;;;;10.00;4.78;;;8.90;42.90;;;;;;2330092;53;20921;-66
2022/03/28 06:58:41;;;;;;;8.38;4.43;;;9.00;42.80;;;;;;2585199;53;20976;-65
2022/03/28 07:01:07;;;;;;;7.95;4.82;;;9.20;42.80;;;;;;2340130;54;21502;-63
2022/03/28 07:03:34;;;;;;;10.23;4.60;;;9.30;42.80;;;;;;2340102;54;21012;-64
2022/03/28 07:06:01;;;;;;;7.37;4.43;;;9.50;42.80;;;;;;2339909;54;21497;-64
2022/03/28 07:08:29;;;;;;;8.52;4.22;;;9.60;42.80;;;;;;2340074;54;20943;-64
2022/03/28 07:10:55;;;;;;;9.70;4.30;;;9.80;42.80;;;;;;2340111;54;21571;-63
2022/03/28 07:13:22;;;;;;;7.53;4.12;;;9.90;42.70;;;;;;2339723;54;20945;-66
2022/03/28 07:15:48;;;;;;;8.45;4.18;;;10.00;41.70;;;;;;2339800;53;21805;-64
2022/03/28 07:18:18;;;;;;;9.23;4.18;;;10.10;41.60;;;;;;2386835;53;20960;-64
2022/03/28 07:20:44;;;;;;;6.85;3.67;;;10.30;41.70;;;;;;2343378;53;20992;-63
2022/03/28 07:23:12;;;;;;;8.30;4.20;;;10.40;41.70;;;;;;2340006;54;20920;-67
2022/03/28 07:25:38;;;;;;;8.02;4.40;;;10.60;41.80;;;;;;2339620;54;20932;-67
2022/03/28 07:28:08;;;;;;;8.20;4.55;;;10.70;41.70;;;;;;2339783;54;20979;-66
2022/03/28 07:30:37;;;;;;;9.70;4.35;;;10.90;41.70;;;;;;2342012;53;20929;-66
2022/03/28 07:33:04;;;;;;;8.57;4.47;;;11.00;41.60;;;;;;2339650;53;20991;-66
2022/03/28 07:35:32;;;;;;;10.88;5.07;;;11.20;41.60;;;;;;2339238;54;20952;-64
2022/03/28 07:37:58;;;;;;;11.43;5.35;;;11.30;41.60;;;;;;2340819;53;21047;-64
2022/03/28 07:40:25;;;;;;;10.20;5.15;;;11.50;41.80;;;;;;2585072;53;20984;-64
2022/03/28 07:42:53;;;;;;;9.45;5.05;;;11.60;41.70;;;;;;2585479;53;21282;-65
2022/03/28 07:45:20;;;;;;;9.50;4.78;;;11.70;41.70;;;;;;2339265;53;20976;-64
2022/03/28 07:47:46;;;;;;;8.02;4.78;;;11.90;41.80;;;;;;2340128;54;20940;-65
2022/03/28 07:50:13;;;;;;;7.82;4.70;;;12.00;41.80;;;;;;2338168;53;20996;-68
2022/03/28 07:52:39;;;;;;;8.65;4.60;;;12.20;42.00;;;;;;2341937;53;21501;-66
2022/03/28 07:55:09;;;;;;;9.50;4.40;;;12.40;42.20;;;;;;2328744;53;21375;-65
2022/03/28 07:57:36;;;;;;;11.65;5.07;;;12.60;42.20;;;;;;2339991;54;21452;-65
2022/03/28 08:00:07;;;;;;;9.52;5.25;;;12.80;42.10;;;;;;2339900;54;20921;-66
2022/03/28 08:02:48;;;;;;;9.90;5.55;;;13.00;42.20;;;;;;2340004;54;21308;-65
2022/03/28 08:05:14;;;;;;;8.88;4.72;;;13.30;43.20;;;;;;2339497;54;20920;-66
2022/03/28 08:07:41;;;;;;;7.78;4.50;;;13.60;42.80;;;;;;2339232;53;20956;-65
2022/03/28 08:10:09;;;;;;;9.88;4.85;;;14.00;43.10;;;;;;2340062;54;20991;-65
2022/03/28 08:12:37;;;;;;;7.22;4.53;;;14.30;43.10;;;;;;2339783;54;20940;-65
2022/03/28 08:15:09;;;;;;;7.55;4.47;;;14.80;43.40;;;;;;2339792;54;20940;-67
2022/03/28 08:17:37;;;;;;;7.03;4.37;;;15.20;43.80;;;;;;2337503;54;20945;-66
2022/03/28 08:20:06;;;;;;;7.47;4.07;;;15.70;44.00;;;;;;2339583;54;20949;-66
2022/03/28 08:22:44;;;;;;;6.18;3.72;;;16.20;44.20;;;;;;2340044;54;21307;-65
2022/03/28 08:25:10;;;;;;;7.62;3.67;;;16.80;44.60;;;;;;2339468;53;21016;-66
2022/03/28 08:27:37;;;;;;;5.90;3.47;;;17.40;45.00;;;;;;2337875;54;20960;-66
2022/03/28 08:30:05;;;;;;;9.18;4.00;;;17.90;45.00;;;;;;2343179;53;20949;-66
2022/03/28 08:32:33;;;;;;;11.48;4.22;;;18.50;44.50;;;;;;2342436;53;21352;-66
2022/03/28 08:35:00;;;;;;;9.70;5.00;;;19.00;43.80;;;;;;2374251;53;20909;-68
2022/03/28 08:37:27;;;;;;;8.93;4.90;;;19.50;42.90;;;;;;2339732;53;21004;-64
2022/03/28 08:39:55;;;;;;;8.27;4.80;;;19.90;42.50;;;;;;2340407;54;20944;-64
2022/03/28 08:42:24;;;;;;;7.93;4.50;;;20.30;42.40;;;;;;2340202;54;20999;-65
2022/03/28 08:44:51;;;;;;;8.63;4.68;;;20.70;42.10;;;;;;2340069;54;20912;-66
2022/03/28 08:47:18;;;;;;;7.85;4.37;;;21.20;42.30;;;;;;2339255;54;20991;-66
2022/03/28 08:49:47;;;;;;;7.72;4.50;;;21.60;42.00;;;;;;2343308;53;20957;-66
2022/03/28 08:52:16;;;;;;;7.32;5.00;;;22.00;41.30;;;;;;2339687;53;20971;-67
2022/03/28 08:54:43;;;;;;;9.25;4.80;;;22.40;40.80;;;;;;2346788;53;20960;-67
2022/03/28 08:57:12;;;;;;;6.45;4.18;;;22.70;40.10;;;;;;2335051;53;21032;-65
2022/03/28 08:59:38;;;;;;;7.28;4.95;;;23.10;39.60;;;;;;2339588;54;20968;-67
2022/03/28 09:02:05;;;;;;;8.40;5.00;;;23.40;39.30;;;;;;2402096;53;20968;-68
2022/03/28 09:04:35;;;;;;;8.45;5.22;;;23.80;39.00;;;;;;2380415;53;20937;-67
2022/03/28 09:07:02;;;;;;;8.27;4.53;;;24.10;38.60;;;;;;2317539;53;20939;-67
2022/03/28 09:09:34;;;;;;;8.25;5.40;;;24.40;38.40;;;;;;2317824;53;20926;-65
2022/03/28 09:12:08;;;;;;;8.95;5.75;;;24.80;37.50;;;;;;2317597;53;20911;-66
2022/03/28 09:14:40;;;;;;;8.88;5.57;;;25.10;36.60;;;;;;2307914;53;20976;-67
2022/03/28 09:17:14;;;;;;;7.72;4.75;;;25.40;36.60;;;;;;2326276;53;21019;-66
2022/03/28 09:19:55;;;;;;;8.70;5.30;;;25.70;35.40;;;;;;2335993;53;21039;-66
2022/03/28 09:22:23;;;;;;;9.38;4.62;;;25.90;34.40;;;;;;2341531;53;20959;-67
2022/03/28 09:24:50;;;;;;;9.73;6.18;;;26.00;34.60;;;;;;2339464;54;21040;-67
2022/03/28 09:27:27;;;;;;;9.95;5.43;;;26.20;34.00;;;;;;2339743;53;20932;-69
2022/03/28 09:30:08;;;;;;;7.35;4.90;;;26.40;33.10;;;;;;2339825;54;20988;-67
2022/03/28 09:32:55;;;;;;;6.55;4.45;;;26.60;33.10;;;;;;2320910;55;20937;-66
2022/03/28 09:35:23;;;;;;;8.52;5.45;;;26.80;32.50;;;;;;2340307;53;20952;-68
2022/03/28 09:38:03;;;;;;;9.15;5.93;;;26.90;32.80;;;;;;2337694;53;20999;-66
2022/03/28 09:40:41;;;;;;;9.05;5.40;;;27.10;32.00;;;;;;2340682;53;21565;-68
2022/03/28 09:43:20;;;;;;;10.40;6.12;;;27.20;31.10;;;;;;2585953;53;20953;-69
2022/03/28 09:45:54;;;;;;;11.35;5.40;;;27.20;30.70;;;;;;2327973;53;20978;-67
2022/03/28 09:48:22;;;;;;;11.27;5.93;;;27.30;30.70;;;;;;2339782;54;21541;-68
2022/03/28 09:51:03;;;;;;;10.60;6.32;;;27.50;31.10;;;;;;2342503;53;20951;-67
2022/03/28 09:53:31;;;;;;;10.45;6.65;;;27.60;30.40;;;;;;2339947;54;20932;-68
2022/03/28 09:56:05;;;;;;;8.77;5.68;;;27.80;30.50;;;;;;2339749;54;21004;-67
2022/03/28 09:58:59;;;;;;;8.35;5.50;;;27.90;30.00;;;;;;2320977;55;20932;-67
2022/03/28 10:01:31;;;;;;;10.35;5.15;;;28.10;29.80;;;;;;2339971;54;20992;-68
2022/03/28 10:04:03;;;;;;;;;;;28.20;30.00;;;;;;2343332;54;21745;-68
2022/03/28 10:06:29;;;;;;;8.90;5.43;;;28.40;29.90;;;;;;2365094;53;20139;-68
2022/03/28 10:08:56;;;;;;;10.32;6.12;;;28.50;29.90;;;;;;2342870;53;20996;-67
2022/03/28 10:11:22;;;;;;;9.90;6.45;;;28.60;29.50;;;;;;2340399;53;21460;-67
2022/03/28 10:13:48;;;;;;;8.57;5.87;;;28.60;29.10;;;;;;2363923;53;20961;-67
2022/03/28 10:16:19;;;;;;;8.63;6.07;;;28.60;28.80;;;;;;2331006;53;21007;-68
2022/03/28 10:18:45;;;;;;;10.70;6.93;;;28.60;28.50;;;;;;2336748;53;21520;-67
2022/03/28 10:21:45;;;;;;;10.73;5.65;;;28.60;28.20;;;;;;2343481;53;20997;-67
2022/03/28 10:24:16;;;;;;;9.02;6.00;;;28.40;27.70;;;;;;2340037;53;20964;-66
2022/03/28 10:26:45;;;;;;;11.50;6.07;;;28.40;28.20;;;;;;2372290;53;21079;-68
2022/03/28 10:29:17;;;;;;;13.20;6.37;;;28.20;27.90;;;;;;2339950;54;20958;-67
2022/03/28 10:31:56;;;;;;;8.57;5.68;;;28.10;27.80;;;;;;2343376;54;20957;-68
2022/03/28 10:35:04;;;;;;;11.38;6.25;;;28.00;27.50;;;;;;2329513;53;20915;-66
2022/03/28 10:37:38;;;;;;;9.50;6.40;;;27.90;27.30;;;;;;2340215;54;20932;-71
2022/03/28 10:40:32;;;;;;;9.85;5.90;;;27.80;27.60;;;;;;2340683;54;21016;-67
2022/03/28 10:43:21;;;;;;;10.23;6.45;;;27.70;27.20;;;;;;2340071;54;21051;-70
2022/03/28 10:45:57;;;;;;;10.80;5.87;;;27.60;27.20;;;;;;2348163;53;20981;-66
2022/03/28 10:49:00;;;;;;;12.32;7.22;;;27.40;27.00;;;;;;2327868;53;22024;-66
2022/03/28 10:51:30;;;;;;;12.32;6.65;;;27.30;26.90;;;;;;2341522;53;20944;-67
2022/03/28 10:53:58;;;;;;;11.07;7.05;;;27.20;27.30;;;;;;2341542;53;21560;-71
2022/03/28 10:56:26;;;;;;;11.63;6.65;;;27.20;27.30;;;;;;2339523;53;20984;-67
2022/03/28 10:58:58;;;;;;;10.32;6.70;;;27.20;27.10;;;;;;2342001;53;21754;-68
2022/03/28 11:01:32;;;;;;;11.57;7.22;;;27.10;27.10;;;;;;2431218;53;20968;-67
2022/03/28 11:04:07;;;;;;;11.07;7.10;;;27.20;26.70;;;;;;2361030;53;20951;-66
2022/03/28 11:07:34;;;;;;;12.82;7.35;;;27.10;26.30;;;;;;2338413;53;20948;-68
2022/03/28 11:10:08;;;;;;;13.62;7.40;;;27.10;26.00;;;;;;2339913;54;20996;-67
2022/03/28 11:12:51;;;;;;;12.73;7.68;;;27.00;26.20;;;;;;2339938;54;21008;-67
2022/03/28 11:15:22;;;;;;;11.43;7.28;;;27.00;26.10;;;;;;2320898;55;21000;-67
2022/03/28 11:17:58;;;;;;;10.93;7.22;;;27.00;26.70;;;;;;2344187;53;21473;-69
2022/03/28 11:20:42;;;;;;;13.88;8.32;;;27.00;26.20;;;;;;2339410;53;20976;-67
2022/03/28 11:23:13;;;;;;;13.43;8.20;;;27.10;25.80;;;;;;2339479;54;20956;-68
2022/03/28 11:25:56;;;;;;;13.60;8.00;;;27.10;25.50;;;;;;2345950;53;20960;-67
2022/03/28 11:28:27;;;;;;;12.43;7.53;;;27.00;25.00;;;;;;2327070;53;21020;-66
2022/03/28 11:30:56;;;;;;;10.32;6.68;;;27.00;25.50;;;;;;2339715;53;20953;-69
2022/03/28 11:33:23;;;;;;;13.45;6.53;;;27.00;25.80;;;;;;2339195;54;21033;-68
2022/03/28 11:36:30;;;;;;;12.35;6.35;;;27.10;26.20;;;;;;2440692;53;20972;-66
2022/03/28 11:39:03;;;;;;;11.07;6.35;;;27.10;26.00;;;;;;2340182;54;20960;-68
2022/03/28 11:41:30;;;;;;;10.88;6.78;;;27.20;26.10;;;;;;2339929;54;20928;-67
2022/03/28 11:43:57;;;;;;;11.02;6.93;;;27.20;26.20;;;;;;2585811;53;20909;-67
2022/03/28 11:46:28;;;;;;;10.70;6.65;;;27.30;26.10;;;;;;2340060;53;20976;-66
2022/03/28 11:49:09;;;;;;;10.80;6.60;;;27.30;25.90;;;;;;2340067;54;20972;-70
2022/03/28 11:51:40;;;;;;;9.50;6.22;;;27.40;26.00;;;;;;2339742;54;21087;-67
2022/03/28 11:54:12;;;;;;;11.77;6.60;;;27.50;26.00;;;;;;2427674;53;20944;-69
2022/03/28 11:59:26;;;;;;;9.60;5.60;;;27.60;26.00;;;;;;2339829;54;20959;-68
2022/03/28 12:01:56;;;;;;;10.77;6.10;;;27.70;26.00;;;;;;2339530;54;21080;-66
2022/03/28 12:04:25;;;;;;;10.65;6.40;;;27.80;25.70;;;;;;2343445;53;20992;-65
2022/03/28 12:06:54;;;;;;;9.55;5.78;;;27.80;25.70;;;;;;2576322;53;21000;-67
2022/03/28 12:09:21;;;;;;;10.15;6.40;;;27.90;25.60;;;;;;2339746;54;20929;-68
2022/03/28 12:11:48;;;;;;;8.55;5.70;;;28.00;25.40;;;;;;2340079;54;20912;-66
2022/03/28 12:14:20;;;;;;;9.77;6.32;;;28.00;25.30;;;;;;2346614;53;21025;-64
2022/03/28 12:16:53;;;;;;;8.93;5.72;;;28.00;25.20;;;;;;2333754;53;20913;-65
2022/03/28 12:19:22;;;;;;;9.50;5.65;;;28.10;25.10;;;;;;2360240;53;21503;-65
2022/03/28 12:21:49;;;;;;;9.55;5.80;;;28.20;25.10;;;;;;2339639;53;20960;-69
2022/03/28 12:24:15;;;;;;;10.73;7.32;;;28.30;25.10;;;;;;2340596;53;20984;-69
2022/03/28 12:26:45;;;;;;;11.80;7.03;;;28.30;24.80;;;;;;2385333;53;20952;-67
2022/03/28 12:29:14;;;;;;;8.80;6.20;;;28.30;24.60;;;;;;2340045;54;21043;-65
2022/03/28 12:31:42;;;;;;;9.80;5.97;;;28.40;24.50;;;;;;2337646;53;20949;-66
2022/03/28 12:34:10;;;;;;;8.85;6.15;;;28.40;24.60;;;;;;2339311;54;20961;-65
2022/03/28 12:36:36;;;;;;;9.70;5.82;;;28.50;24.70;;;;;;2342835;53;20954;-68
2022/03/28 12:39:10;;;;;;;8.70;5.70;;;28.50;24.70;;;;;;2343003;53;20932;-67
2022/03/28 12:41:47;;;;;;;9.70;6.53;;;28.60;24.30;;;;;;2345103;53;21345;-65
2022/03/28 12:44:17;;;;;;;7.65;5.60;;;28.70;23.90;;;;;;2332544;53;20942;-65
2022/03/28 12:46:44;;;;;;;10.48;6.37;;;28.80;24.20;;;;;;2342318;53;21017;-65
2022/03/28 12:49:14;;;;;;;9.93;5.07;;;28.90;24.10;;;;;;2584894;53;21077;-65
2022/03/28 12:51:41;;;;;;;7.28;5.82;;;29.00;24.30;;;;;;2343666;53;20965;-66
2022/03/28 12:54:10;;;;;;;8.68;5.72;;;29.00;23.90;;;;;;2539955;53;21072;-66
2022/03/28 12:56:56;;;;;;;10.48;6.22;;;29.10;23.60;;;;;;2584497;53;20912;-66
2022/03/28 12:59:28;;;;;;;9.52;5.75;;;29.10;23.00;;;;;;2346298;53;21005;-64
2022/03/28 13:02:21;;;;;;;7.62;5.28;;;29.20;23.00;;;;;;2329541;53;20995;-66
2022/03/28 13:04:54;;;;;;;7.00;4.47;;;29.20;22.80;;;;;;2343547;53;20906;-65